Flagstaff, Arizona
Current Conditions -  °F | °C
As of 3:57 PM on Wednesday 22 Oct 2014 (Local Time) from KFLG Reporting Station
Few Clouds Few Clouds  
Wind Chill: 18°   Ceiling: Unl
Heat Index: 18°   Visibility: 10mi
Dew Point:   Wind: 13mph
Humidity: 37%   Direction: 200°SSW
Pressure: 30.23"   Gusts: NA
Location:  35.2°N, 111.65°W
Report Text: KFLG 222257Z 20011KT 10SM FEW065 18/03 A3023 RMK AO2 SLP171 T01780028
Loading
Personal Weather Stations






























Interactive Weather Map
Tropical Storm Tracking
New forecast layout! Learn more

10-Day Weather Forecast

Advertisements
Track Severe Weather on mobile